sensor_id;sensor_type;location;lat;lon;timestamp;pressure;altitude;pressure_sealevel;temperature;humidity
59873;BME280;50750;51.636;4.948;2022-11-06T00:00:43;101569.81;;;15.32;62.81
59873;BME280;50750;51.636;4.948;2022-11-06T00:03:10;101565.21;;;15.32;62.91
59873;BME280;50750;51.636;4.948;2022-11-06T00:05:41;101556.20;;;15.32;62.80
59873;BME280;50750;51.636;4.948;2022-11-06T00:08:37;101551.25;;;15.33;62.83
59873;BME280;50750;51.636;4.948;2022-11-06T00:11:12;101555.27;;;15.33;62.93
59873;BME280;50750;51.636;4.948;2022-11-06T00:13:40;101554.23;;;15.33;62.75
59873;BME280;50750;51.636;4.948;2022-11-06T00:16:09;101546.44;;;15.33;62.73
59873;BME280;50750;51.636;4.948;2022-11-06T00:18:37;101544.85;;;15.34;62.74
59873;BME280;50750;51.636;4.948;2022-11-06T00:21:11;101547.48;;;15.33;62.78
59873;BME280;50750;51.636;4.948;2022-11-06T00:23:38;101542.39;;;15.33;62.73
59873;BME280;50750;51.636;4.948;2022-11-06T00:26:07;101542.94;;;15.33;62.82
59873;BME280;50750;51.636;4.948;2022-11-06T00:28:35;101536.80;;;15.32;62.77
59873;BME280;50750;51.636;4.948;2022-11-06T00:31:04;101536.08;;;15.32;62.66
59873;BME280;50750;51.636;4.948;2022-11-06T00:33:31;101536.45;;;15.32;62.77
59873;BME280;50750;51.636;4.948;2022-11-06T00:36:00;101531.53;;;15.32;62.80
59873;BME280;50750;51.636;4.948;2022-11-06T00:38:27;101533.11;;;15.32;62.68
59873;BME280;50750;51.636;4.948;2022-11-06T00:40:54;101531.56;;;15.30;62.83
59873;BME280;50750;51.636;4.948;2022-11-06T00:43:20;101532.98;;;15.30;62.81
59873;BME280;50750;51.636;4.948;2022-11-06T00:45:47;101529.08;;;15.31;62.86
59873;BME280;50750;51.636;4.948;2022-11-06T00:48:13;101528.70;;;15.32;62.83
59873;BME280;50750;51.636;4.948;2022-11-06T00:50:40;101524.98;;;15.32;62.78
59873;BME280;50750;51.636;4.948;2022-11-06T00:53:06;101523.55;;;15.33;62.82
59873;BME280;50750;51.636;4.948;2022-11-06T00:55:33;101524.42;;;15.33;62.77
59873;BME280;50750;51.636;4.948;2022-11-06T00:57:59;101518.39;;;15.33;62.80
59873;BME280;50750;51.636;4.948;2022-11-06T01:00:26;101521.57;;;15.33;62.82
59873;BME280;50750;51.636;4.948;2022-11-06T01:02:54;101515.22;;;15.33;62.83
59873;BME280;50750;51.636;4.948;2022-11-06T01:05:21;101517.15;;;15.33;62.78
59873;BME280;50750;51.636;4.948;2022-11-06T01:07:47;101518.39;;;15.33;62.77
59873;BME280;50750;51.636;4.948;2022-11-06T01:10:14;101515.07;;;15.32;62.70
59873;BME280;50750;51.636;4.948;2022-11-06T01:12:40;101517.02;;;15.33;62.70
59873;BME280;50750;51.636;4.948;2022-11-06T01:15:08;101515.08;;;15.33;62.80
59873;BME280;50750;51.636;4.948;2022-11-06T01:17:34;101515.29;;;15.32;62.74
59873;BME280;50750;51.636;4.948;2022-11-06T01:20:02;101516.33;;;15.32;62.75
59873;BME280;50750;51.636;4.948;2022-11-06T01:22:29;101515.14;;;15.31;62.70
59873;BME280;50750;51.636;4.948;2022-11-06T01:24:56;101520.27;;;15.31;62.84
59873;BME280;50750;51.636;4.948;2022-11-06T01:27:22;101523.30;;;15.30;62.79
59873;BME280;50750;51.636;4.948;2022-11-06T01:29:49;101519.43;;;15.30;62.67
59873;BME280;50750;51.636;4.948;2022-11-06T01:32:16;101515.91;;;15.30;62.78
59873;BME280;50750;51.636;4.948;2022-11-06T01:34:42;101511.13;;;15.30;62.75
59873;BME280;50750;51.636;4.948;2022-11-06T01:37:09;101514.77;;;15.31;62.86
59873;BME280;50750;51.636;4.948;2022-11-06T01:39:35;101514.07;;;15.31;62.76
59873;BME280;50750;51.636;4.948;2022-11-06T01:42:02;101511.22;;;15.32;62.79
59873;BME280;50750;51.636;4.948;2022-11-06T01:47:00;101511.03;;;15.32;62.67
59873;BME280;50750;51.636;4.948;2022-11-06T01:49:28;101512.77;;;15.33;62.78
59873;BME280;50750;51.636;4.948;2022-11-06T01:51:58;101511.03;;;15.32;62.54
59873;BME280;50750;51.636;4.948;2022-11-06T01:54:27;101506.45;;;15.32;62.71
59873;BME280;50750;51.636;4.948;2022-11-06T01:56:56;101505.75;;;15.32;62.67
59873;BME280;50750;51.636;4.948;2022-11-06T01:59:26;101508.21;;;15.32;62.67
59873;BME280;50750;51.636;4.948;2022-11-06T02:01:54;101503.83;;;15.31;62.71
59873;BME280;50750;51.636;4.948;2022-11-06T02:04:24;101500.33;;;15.31;62.75
59873;BME280;50750;51.636;4.948;2022-11-06T02:06:51;101493.45;;;15.30;62.76
59873;BME280;50750;51.636;4.948;2022-11-06T02:09:18;101486.44;;;15.30;62.78
59873;BME280;50750;51.636;4.948;2022-11-06T02:14:53;101472.00;;;15.29;62.74
59873;BME280;50750;51.636;4.948;2022-11-06T02:17:54;101466.40;;;15.28;62.77
59873;BME280;50750;51.636;4.948;2022-11-06T02:30:46;101468.42;;;15.30;62.69
59873;BME280;50750;51.636;4.948;2022-11-06T02:33:17;101462.92;;;15.31;62.82
59873;BME280;50750;51.636;4.948;2022-11-06T02:35:58;101467.85;;;15.31;62.79
59873;BME280;50750;51.636;4.948;2022-11-06T02:38:35;101468.55;;;15.31;62.77
59873;BME280;50750;51.636;4.948;2022-11-06T02:41:06;101460.80;;;15.31;62.69
59873;BME280;50750;51.636;4.948;2022-11-06T02:43:44;101461.34;;;15.31;62.72
59873;BME280;50750;51.636;4.948;2022-11-06T02:48:56;101460.10;;;15.30;62.73
59873;BME280;50750;51.636;4.948;2022-11-06T02:51:27;101452.55;;;15.30;62.72
59873;BME280;50750;51.636;4.948;2022-11-06T02:53:59;101455.02;;;15.30;62.65
59873;BME280;50750;51.636;4.948;2022-11-06T02:56:32;101456.29;;;15.29;62.74
59873;BME280;50750;51.636;4.948;2022-11-06T03:01:36;101452.98;;;15.28;62.77
59873;BME280;50750;51.636;4.948;2022-11-06T03:04:11;101459.88;;;15.27;62.83
59873;BME280;50750;51.636;4.948;2022-11-06T03:06:45;101465.90;;;15.27;62.82
59873;BME280;50750;51.636;4.948;2022-11-06T03:09:18;101458.52;;;15.26;62.84
59873;BME280;50750;51.636;4.948;2022-11-06T03:11:50;101442.48;;;15.26;62.80
59873;BME280;50750;51.636;4.948;2022-11-06T03:14:34;101440.02;;;15.25;62.88
59873;BME280;50750;51.636;4.948;2022-11-06T03:17:17;101426.41;;;15.25;62.92
59873;BME280;50750;51.636;4.948;2022-11-06T03:20:33;101422.50;;;15.27;62.81
59873;BME280;50750;51.636;4.948;2022-11-06T03:22:43;101424.41;;;15.27;62.79
59873;BME280;50750;51.636;4.948;2022-11-06T03:25:20;101425.08;;;15.29;62.78
59873;BME280;50750;51.636;4.948;2022-11-06T03:30:21;101422.03;;;15.30;62.74
59873;BME280;50750;51.636;4.948;2022-11-06T03:33:08;101422.02;;;15.30;62.75
59873;BME280;50750;51.636;4.948;2022-11-06T03:38:17;101423.94;;;15.30;62.84
59873;BME280;50750;51.636;4.948;2022-11-06T03:40:58;101416.19;;;15.30;62.81
59873;BME280;50750;51.636;4.948;2022-11-06T03:43:29;101408.27;;;15.30;62.79
59873;BME280;50750;51.636;4.948;2022-11-06T03:45:58;101404.42;;;15.29;62.79
59873;BME280;50750;51.636;4.948;2022-11-06T03:48:31;101394.38;;;15.29;62.88
59873;BME280;50750;51.636;4.948;2022-11-06T03:51:04;101390.85;;;15.28;62.83
59873;BME280;50750;51.636;4.948;2022-11-06T03:53:44;101388.96;;;15.27;62.81
59873;BME280;50750;51.636;4.948;2022-11-06T03:56:27;101388.81;;;15.27;62.80
59873;BME280;50750;51.636;4.948;2022-11-06T03:58:57;101386.71;;;15.26;62.79
59873;BME280;50750;51.636;4.948;2022-11-06T04:01:30;101385.69;;;15.25;62.88
59873;BME280;50750;51.636;4.948;2022-11-06T04:04:05;101381.62;;;15.25;62.91
59873;BME280;50750;51.636;4.948;2022-11-06T04:06:41;101375.83;;;15.24;62.88
59873;BME280;50750;51.636;4.948;2022-11-06T04:09:11;101373.66;;;15.25;62.86
59873;BME280;50750;51.636;4.948;2022-11-06T04:12:00;101367.84;;;15.26;62.85
59873;BME280;50750;51.636;4.948;2022-11-06T04:14:50;101372.05;;;15.26;62.74
59873;BME280;50750;51.636;4.948;2022-11-06T04:17:18;101364.64;;;15.26;62.83
59873;BME280;50750;51.636;4.948;2022-11-06T04:19:48;101362.52;;;15.27;62.92
59873;BME280;50750;51.636;4.948;2022-11-06T04:30:45;101355.17;;;15.25;62.91
59873;BME280;50750;51.636;4.948;2022-11-06T04:36:15;101352.02;;;15.24;62.83
59873;BME280;50750;51.636;4.948;2022-11-06T04:44:27;101344.54;;;15.22;63.00
59873;BME280;50750;51.636;4.948;2022-11-06T04:47:01;101340.16;;;15.21;62.94
59873;BME280;50750;51.636;4.948;2022-11-06T04:49:31;101344.23;;;15.20;62.90
59873;BME280;50750;51.636;4.948;2022-11-06T04:52:02;101337.68;;;15.21;62.92
59873;BME280;50750;51.636;4.948;2022-11-06T04:54:31;101333.25;;;15.22;62.97
59873;BME280;50750;51.636;4.948;2022-11-06T04:56:58;101328.30;;;15.22;62.97
59873;BME280;50750;51.636;4.948;2022-11-06T04:59:29;101324.55;;;15.23;62.97
59873;BME280;50750;51.636;4.948;2022-11-06T05:01:58;101322.94;;;15.24;62.99
59873;BME280;50750;51.636;4.948;2022-11-06T05:04:25;101320.97;;;15.24;62.93
59873;BME280;50750;51.636;4.948;2022-11-06T05:06:51;101323.95;;;15.25;62.97
59873;BME280;50750;51.636;4.948;2022-11-06T05:09:18;101317.42;;;15.25;62.90
59873;BME280;50750;51.636;4.948;2022-11-06T05:11:44;101317.57;;;15.25;62.89
59873;BME280;50750;51.636;4.948;2022-11-06T05:14:11;101317.76;;;15.25;62.92
59873;BME280;50750;51.636;4.948;2022-11-06T05:16:37;101318.64;;;15.25;62.96
59873;BME280;50750;51.636;4.948;2022-11-06T05:19:04;101319.70;;;15.25;62.84
59873;BME280;50750;51.636;4.948;2022-11-06T05:21:31;101315.86;;;15.24;62.84
59873;BME280;50750;51.636;4.948;2022-11-06T05:24:16;101316.42;;;15.23;62.89
59873;BME280;50750;51.636;4.948;2022-11-06T05:26:42;101318.03;;;15.23;62.91
59873;BME280;50750;51.636;4.948;2022-11-06T05:29:11;101311.19;;;15.22;62.94
59873;BME280;50750;51.636;4.948;2022-11-06T05:31:38;101311.91;;;15.22;62.93
59873;BME280;50750;51.636;4.948;2022-11-06T05:34:06;101313.71;;;15.21;62.95
59873;BME280;50750;51.636;4.948;2022-11-06T05:36:32;101303.65;;;15.21;63.07
59873;BME280;50750;51.636;4.948;2022-11-06T05:38:59;101302.74;;;15.21;62.90
59873;BME280;50750;51.636;4.948;2022-11-06T05:41:25;101303.42;;;15.22;62.87
59873;BME280;50750;51.636;4.948;2022-11-06T05:43:52;101298.80;;;15.22;63.03
59873;BME280;50750;51.636;4.948;2022-11-06T05:46:18;101296.34;;;15.22;62.97
59873;BME280;50750;51.636;4.948;2022-11-06T05:48:45;101302.48;;;15.23;62.96
59873;BME280;50750;51.636;4.948;2022-11-06T05:51:12;101299.67;;;15.23;62.95
59873;BME280;50750;51.636;4.948;2022-11-06T05:53:38;101289.79;;;15.23;62.91
59873;BME280;50750;51.636;4.948;2022-11-06T05:56:05;101275.83;;;15.23;62.88
59873;BME280;50750;51.636;4.948;2022-11-06T05:58:32;101273.39;;;15.23;62.90
59873;BME280;50750;51.636;4.948;2022-11-06T06:00:58;101280.10;;;15.23;62.95
59873;BME280;50750;51.636;4.948;2022-11-06T06:03:25;101281.73;;;15.22;62.96
59873;BME280;50750;51.636;4.948;2022-11-06T06:05:52;101288.43;;;15.22;62.86
59873;BME280;50750;51.636;4.948;2022-11-06T06:08:19;101284.38;;;15.21;62.92
59873;BME280;50750;51.636;4.948;2022-11-06T06:10:46;101273.81;;;15.21;62.89
59873;BME280;50750;51.636;4.948;2022-11-06T06:13:13;101273.66;;;15.21;62.99
59873;BME280;50750;51.636;4.948;2022-11-06T06:15:41;101276.50;;;15.20;62.96
59873;BME280;50750;51.636;4.948;2022-11-06T06:18:08;101271.59;;;15.20;62.91
59873;BME280;50750;51.636;4.948;2022-11-06T06:20:35;101266.10;;;15.20;62.96
59873;BME280;50750;51.636;4.948;2022-11-06T06:23:02;101262.38;;;15.20;62.98
59873;BME280;50750;51.636;4.948;2022-11-06T06:25:29;101263.44;;;15.20;62.90
59873;BME280;50750;51.636;4.948;2022-11-06T06:27:57;101271.36;;;15.21;63.03
59873;BME280;50750;51.636;4.948;2022-11-06T06:30:24;101277.83;;;15.22;62.90
59873;BME280;50750;51.636;4.948;2022-11-06T06:32:51;101279.93;;;15.23;62.96
59873;BME280;50750;51.636;4.948;2022-11-06T06:35:18;101275.17;;;15.22;62.92
59873;BME280;50750;51.636;4.948;2022-11-06T06:37:53;101273.04;;;15.23;62.90
59873;BME280;50750;51.636;4.948;2022-11-06T06:40:21;101262.64;;;15.22;62.94
59873;BME280;50750;51.636;4.948;2022-11-06T06:42:48;101257.00;;;15.22;62.85
59873;BME280;50750;51.636;4.948;2022-11-06T06:45:15;101250.31;;;15.22;62.92
59873;BME280;50750;51.636;4.948;2022-11-06T06:47:41;101248.73;;;15.22;62.94
59873;BME280;50750;51.636;4.948;2022-11-06T06:50:08;101246.98;;;15.22;62.94
59873;BME280;50750;51.636;4.948;2022-11-06T06:52:35;101249.13;;;15.21;62.93
59873;BME280;50750;51.636;4.948;2022-11-06T06:55:01;101245.80;;;15.21;62.88
59873;BME280;50750;51.636;4.948;2022-11-06T06:57:28;101241.41;;;15.20;62.97
59873;BME280;50750;51.636;4.948;2022-11-06T06:59:55;101239.51;;;15.19;62.93
59873;BME280;50750;51.636;4.948;2022-11-06T07:02:21;101237.05;;;15.19;62.95
59873;BME280;50750;51.636;4.948;2022-11-06T07:04:48;101244.83;;;15.19;62.95
59873;BME280;50750;51.636;4.948;2022-11-06T07:07:14;101238.95;;;15.19;62.93
59873;BME280;50750;51.636;4.948;2022-11-06T07:09:41;101238.56;;;15.20;62.92
59873;BME280;50750;51.636;4.948;2022-11-06T07:12:07;101232.02;;;15.21;62.84
59873;BME280;50750;51.636;4.948;2022-11-06T07:14:34;101230.95;;;15.21;62.94
59873;BME280;50750;51.636;4.948;2022-11-06T07:17:00;101227.77;;;15.21;62.93
59873;BME280;50750;51.636;4.948;2022-11-06T07:19:27;101227.23;;;15.21;62.85
59873;BME280;50750;51.636;4.948;2022-11-06T07:21:53;101229.34;;;15.21;62.95
59873;BME280;50750;51.636;4.948;2022-11-06T07:24:20;101228.80;;;15.22;62.85
59873;BME280;50750;51.636;4.948;2022-11-06T07:26:46;101228.66;;;15.21;62.93
59873;BME280;50750;51.636;4.948;2022-11-06T07:29:13;101230.06;;;15.21;62.90
59873;BME280;50750;51.636;4.948;2022-11-06T07:31:39;101232.19;;;15.21;62.91
59873;BME280;50750;51.636;4.948;2022-11-06T07:34:06;101227.45;;;15.20;62.97
59873;BME280;50750;51.636;4.948;2022-11-06T07:36:34;101224.99;;;15.20;62.87
59873;BME280;50750;51.636;4.948;2022-11-06T07:39:01;101217.27;;;15.19;62.94
59873;BME280;50750;51.636;4.948;2022-11-06T07:41:27;101217.64;;;15.19;62.97
59873;BME280;50750;51.636;4.948;2022-11-06T07:43:54;101220.15;;;15.18;62.89
59873;BME280;50750;51.636;4.948;2022-11-06T07:46:20;101212.57;;;15.18;62.95
59873;BME280;50750;51.636;4.948;2022-11-06T07:48:47;101213.27;;;15.18;62.99
59873;BME280;50750;51.636;4.948;2022-11-06T07:51:13;101216.45;;;15.18;62.99
59873;BME280;50750;51.636;4.948;2022-11-06T07:53:42;101211.31;;;15.18;62.88
59873;BME280;50750;51.636;4.948;2022-11-06T07:56:09;101207.20;;;15.19;63.04
59873;BME280;50750;51.636;4.948;2022-11-06T07:58:36;101208.80;;;15.19;62.98
59873;BME280;50750;51.636;4.948;2022-11-06T08:01:04;101206.46;;;15.20;62.91
59873;BME280;50750;51.636;4.948;2022-11-06T08:03:31;101205.77;;;15.20;62.93
59873;BME280;50750;51.636;4.948;2022-11-06T08:06:02;101205.75;;;15.21;62.80
59873;BME280;50750;51.636;4.948;2022-11-06T08:08:30;101200.98;;;15.20;62.92
59873;BME280;50750;51.636;4.948;2022-11-06T08:11:04;101201.34;;;15.20;62.92
59873;BME280;50750;51.636;4.948;2022-11-06T08:13:31;101201.87;;;15.21;62.93
59873;BME280;50750;51.636;4.948;2022-11-06T08:16:07;101201.20;;;15.20;62.87
59873;BME280;50750;51.636;4.948;2022-11-06T08:18:35;101197.14;;;15.20;62.96
59873;BME280;50750;51.636;4.948;2022-11-06T08:21:03;101197.33;;;15.19;62.93
59873;BME280;50750;51.636;4.948;2022-11-06T08:23:30;101191.54;;;15.19;62.95
59873;BME280;50750;51.636;4.948;2022-11-06T08:25:59;101190.70;;;15.18;62.95
59873;BME280;50750;51.636;4.948;2022-11-06T08:28:26;101187.35;;;15.18;62.99
59873;BME280;50750;51.636;4.948;2022-11-06T08:30:54;101183.14;;;15.17;62.92
59873;BME280;50750;51.636;4.948;2022-11-06T08:33:21;101176.96;;;15.17;62.98
59873;BME280;50750;51.636;4.948;2022-11-06T08:35:48;101174.84;;;15.18;63.02
59873;BME280;50750;51.636;4.948;2022-11-06T08:38:15;101171.64;;;15.18;62.96
59873;BME280;50750;51.636;4.948;2022-11-06T08:40:42;101166.16;;;15.18;63.01
59873;BME280;50750;51.636;4.948;2022-11-06T08:43:09;101153.24;;;15.19;62.96
59873;BME280;50750;51.636;4.948;2022-11-06T08:45:40;101154.29;;;15.20;62.92
59873;BME280;50750;51.636;4.948;2022-11-06T08:48:08;101150.20;;;15.20;62.90
59873;BME280;50750;51.636;4.948;2022-11-06T08:50:36;101141.54;;;15.20;62.97
59873;BME280;50750;51.636;4.948;2022-11-06T08:53:04;101136.95;;;15.21;62.93
59873;BME280;50750;51.636;4.948;2022-11-06T08:55:33;101133.07;;;15.21;62.94
59873;BME280;50750;51.636;4.948;2022-11-06T08:58:00;101131.30;;;15.21;62.91
59873;BME280;50750;51.636;4.948;2022-11-06T09:00:27;101129.90;;;15.20;62.93
59873;BME280;50750;51.636;4.948;2022-11-06T09:03:01;101124.24;;;15.21;62.91
59873;BME280;50750;51.636;4.948;2022-11-06T09:05:28;101118.78;;;15.21;62.93
59873;BME280;50750;51.636;4.948;2022-11-06T09:07:57;101115.61;;;15.20;62.88
59873;BME280;50750;51.636;4.948;2022-11-06T09:10:24;101116.85;;;15.20;62.85
59873;BME280;50750;51.636;4.948;2022-11-06T09:12:51;101111.58;;;15.20;62.94
59873;BME280;50750;51.636;4.948;2022-11-06T09:15:18;101107.55;;;15.19;63.05
59873;BME280;50750;51.636;4.948;2022-11-06T09:17:47;101112.12;;;15.19;62.99
59873;BME280;50750;51.636;4.948;2022-11-06T09:20:15;101110.16;;;15.20;62.95
59873;BME280;50750;51.636;4.948;2022-11-06T09:22:42;101107.48;;;15.21;62.93
59873;BME280;50750;51.636;4.948;2022-11-06T09:25:09;101111.33;;;15.22;62.99
59873;BME280;50750;51.636;4.948;2022-11-06T09:27:46;101115.51;;;15.23;62.94
59873;BME280;50750;51.636;4.948;2022-11-06T09:30:16;101116.38;;;15.23;62.96
59873;BME280;50750;51.636;4.948;2022-11-06T09:32:51;101119.69;;;15.24;62.88
59873;BME280;50750;51.636;4.948;2022-11-06T09:35:19;101119.99;;;15.25;63.02
59873;BME280;50750;51.636;4.948;2022-11-06T09:37:46;101119.28;;;15.25;63.01
59873;BME280;50750;51.636;4.948;2022-11-06T09:42:58;101114.86;;;15.25;62.91
59873;BME280;50750;51.636;4.948;2022-11-06T09:45:30;101115.23;;;15.25;62.96
59873;BME280;50750;51.636;4.948;2022-11-06T09:48:20;101117.34;;;15.25;62.91
59873;BME280;50750;51.636;4.948;2022-11-06T09:51:06;101117.38;;;15.24;62.90
59873;BME280;50750;51.636;4.948;2022-11-06T09:53:47;101118.27;;;15.24;62.94
59873;BME280;50750;51.636;4.948;2022-11-06T09:56:17;101111.77;;;15.24;63.02
59873;BME280;50750;51.636;4.948;2022-11-06T09:58:46;101105.27;;;15.23;62.98
59873;BME280;50750;51.636;4.948;2022-11-06T10:01:22;101099.64;;;15.23;63.02
59873;BME280;50750;51.636;4.948;2022-11-06T10:06:19;101091.05;;;15.21;63.04
59873;BME280;50750;51.636;4.948;2022-11-06T10:08:47;101080.61;;;15.22;62.98
59873;BME280;50750;51.636;4.948;2022-11-06T10:14:10;101073.48;;;15.24;63.00
59873;BME280;50750;51.636;4.948;2022-11-06T10:17:44;101074.69;;;15.24;63.04
59873;BME280;50750;51.636;4.948;2022-11-06T10:19:58;101074.63;;;15.26;63.12
59873;BME280;50750;51.636;4.948;2022-11-06T10:22:39;101071.10;;;15.26;63.03
59873;BME280;50750;51.636;4.948;2022-11-06T10:25:21;101065.11;;;15.26;63.02
59873;BME280;50750;51.636;4.948;2022-11-06T10:28:20;101061.21;;;15.26;62.97
59873;BME280;50750;51.636;4.948;2022-11-06T10:33:41;101055.56;;;15.26;62.97
59873;BME280;50750;51.636;4.948;2022-11-06T10:36:17;101051.69;;;15.26;63.04
59873;BME280;50750;51.636;4.948;2022-11-06T10:38:46;101048.70;;;15.25;63.02
59873;BME280;50750;51.636;4.948;2022-11-06T10:41:27;101041.83;;;15.25;62.96
59873;BME280;50750;51.636;4.948;2022-11-06T10:44:05;101043.77;;;15.25;62.96
59873;BME280;50750;51.636;4.948;2022-11-06T10:46:49;101036.18;;;15.25;63.08
59873;BME280;50750;51.636;4.948;2022-11-06T10:49:24;101025.98;;;15.24;63.13
59873;BME280;50750;51.636;4.948;2022-11-06T10:52:08;101023.33;;;15.25;63.14
59873;BME280;50750;51.636;4.948;2022-11-06T10:57:24;101016.04;;;15.27;63.14
59873;BME280;50750;51.636;4.948;2022-11-06T10:59:54;101012.29;;;15.27;63.04
59873;BME280;50750;51.636;4.948;2022-11-06T11:02:30;101010.11;;;15.28;63.12
59873;BME280;50750;51.636;4.948;2022-11-06T11:04:59;101010.64;;;15.29;63.07
59873;BME280;50750;51.636;4.948;2022-11-06T11:07:30;101006.36;;;15.30;63.07
59873;BME280;50750;51.636;4.948;2022-11-06T11:12:50;101005.27;;;15.30;63.02
59873;BME280;50750;51.636;4.948;2022-11-06T11:15:19;101004.20;;;15.30;62.97
59873;BME280;50750;51.636;4.948;2022-11-06T11:18:15;101001.23;;;15.30;63.10
59873;BME280;50750;51.636;4.948;2022-11-06T11:25:41;100991.38;;;15.30;63.04
59873;BME280;50750;51.636;4.948;2022-11-06T11:28:20;100989.09;;;15.29;63.08
59873;BME280;50750;51.636;4.948;2022-11-06T11:33:30;100991.77;;;15.28;62.85
59873;BME280;50750;51.636;4.948;2022-11-06T11:35:57;100985.95;;;15.28;62.66
59873;BME280;50750;51.636;4.948;2022-11-06T11:38:24;100983.19;;;15.27;62.65
59873;BME280;50750;51.636;4.948;2022-11-06T11:40:51;100974.19;;;15.27;62.73
59873;BME280;50750;51.636;4.948;2022-11-06T11:43:30;100968.55;;;15.27;62.74
59873;BME280;50750;51.636;4.948;2022-11-06T11:51:37;100957.86;;;15.29;62.80
59873;BME280;50750;51.636;4.948;2022-11-06T11:54:17;100951.99;;;15.30;62.96
59873;BME280;50750;51.636;4.948;2022-11-06T11:57:01;100950.16;;;15.32;62.83
59873;BME280;50750;51.636;4.948;2022-11-06T11:59:57;100934.83;;;15.31;62.90
59873;BME280;50750;51.636;4.948;2022-11-06T12:02:52;100926.34;;;15.32;62.90
59873;BME280;50750;51.636;4.948;2022-11-06T12:05:34;100921.21;;;15.32;62.98
59873;BME280;50750;51.636;4.948;2022-11-06T12:08:02;100911.16;;;15.32;62.87
59873;BME280;50750;51.636;4.948;2022-11-06T12:13:02;100909.74;;;15.32;62.87
59873;BME280;50750;51.636;4.948;2022-11-06T12:15:46;100907.79;;;15.32;62.94
59873;BME280;50750;51.636;4.948;2022-11-06T12:18:19;100906.74;;;15.32;62.93
59873;BME280;50750;51.636;4.948;2022-11-06T12:21:03;100898.13;;;15.31;63.01
59873;BME280;50750;51.636;4.948;2022-11-06T12:23:42;100891.23;;;15.31;63.02
59873;BME280;50750;51.636;4.948;2022-11-06T12:28:52;100891.30;;;15.30;62.62
59873;BME280;50750;51.636;4.948;2022-11-06T12:31:36;100890.83;;;15.29;62.64
59873;BME280;50750;51.636;4.948;2022-11-06T12:34:10;100891.34;;;15.30;62.72
59873;BME280;50750;51.636;4.948;2022-11-06T12:36:44;100889.02;;;15.30;62.78
59873;BME280;50750;51.636;4.948;2022-11-06T12:39:23;100889.14;;;15.31;62.81
59873;BME280;50750;51.636;4.948;2022-11-06T12:41:54;100885.95;;;15.31;62.82
59873;BME280;50750;51.636;4.948;2022-11-06T12:44:22;100883.22;;;15.33;62.79
59873;BME280;50750;51.636;4.948;2022-11-06T13:00:23;100885.21;;;15.35;62.86
59873;BME280;50750;51.636;4.948;2022-11-06T13:08:42;100881.21;;;15.34;62.96
59873;BME280;50750;51.636;4.948;2022-11-06T13:25:02;100869.02;;;15.31;63.04
59873;BME280;50750;51.636;4.948;2022-11-06T13:27:40;100867.77;;;15.32;63.07
59873;BME280;50750;51.636;4.948;2022-11-06T13:30:15;100867.74;;;15.32;62.99
59873;BME280;50750;51.636;4.948;2022-11-06T13:35:33;100860.98;;;15.33;63.06
59873;BME280;50750;51.636;4.948;2022-11-06T13:38:05;100861.12;;;15.34;62.93
59873;BME280;50750;51.636;4.948;2022-11-06T13:40:36;100868.54;;;15.34;62.81
59873;BME280;50750;51.636;4.948;2022-11-06T13:51:37;100857.19;;;15.32;62.92
59873;BME280;50750;51.636;4.948;2022-11-06T13:59:59;100847.30;;;15.31;62.98
59873;BME280;50750;51.636;4.948;2022-11-06T14:03:04;100848.27;;;15.30;63.07
59873;BME280;50750;51.636;4.948;2022-11-06T14:05:50;100847.41;;;15.29;63.08
59873;BME280;50750;51.636;4.948;2022-11-06T14:08:49;100849.91;;;15.29;62.96
59873;BME280;50750;51.636;4.948;2022-11-06T14:11:23;100846.22;;;15.29;63.01
59873;BME280;50750;51.636;4.948;2022-11-06T14:14:13;100844.79;;;15.29;63.12
59873;BME280;50750;51.636;4.948;2022-11-06T14:22:27;100834.59;;;15.32;62.95
59873;BME280;50750;51.636;4.948;2022-11-06T14:24:55;100828.77;;;15.32;62.87
59873;BME280;50750;51.636;4.948;2022-11-06T14:34:49;100800.16;;;15.32;63.83
59873;BME280;50750;51.636;4.948;2022-11-06T14:44:58;100783.66;;;15.31;64.25
59873;BME280;50750;51.636;4.948;2022-11-06T14:52:48;100775.03;;;15.30;64.31
59873;BME280;50750;51.636;4.948;2022-11-06T14:58:13;100768.11;;;15.31;64.48
59873;BME280;50750;51.636;4.948;2022-11-06T15:00:57;100765.79;;;15.32;64.53
59873;BME280;50750;51.636;4.948;2022-11-06T15:16:38;100736.14;;;15.32;64.50
59873;BME280;50750;51.636;4.948;2022-11-06T15:19:12;100732.11;;;15.31;64.69
59873;BME280;50750;51.636;4.948;2022-11-06T15:27:42;100721.85;;;15.29;64.54
59873;BME280;50750;51.636;4.948;2022-11-06T15:30:14;100722.91;;;15.29;64.58
59873;BME280;50750;51.636;4.948;2022-11-06T15:32:44;100715.23;;;15.30;64.70
59873;BME280;50750;51.636;4.948;2022-11-06T15:37:50;100705.30;;;15.31;64.63
59873;BME280;50750;51.636;4.948;2022-11-06T15:40:36;100706.34;;;15.31;64.57
59873;BME280;50750;51.636;4.948;2022-11-06T15:43:20;100695.23;;;15.32;64.66
59873;BME280;50750;51.636;4.948;2022-11-06T15:48:37;100682.52;;;15.32;64.64
59873;BME280;50750;51.636;4.948;2022-11-06T15:51:19;100679.00;;;15.31;64.58
59873;BME280;50750;51.636;4.948;2022-11-06T15:53:46;100668.09;;;15.31;64.69
59873;BME280;50750;51.636;4.948;2022-11-06T15:56:14;100660.72;;;15.30;64.63
59873;BME280;50750;51.636;4.948;2022-11-06T15:58:42;100656.67;;;15.30;64.62
59873;BME280;50750;51.636;4.948;2022-11-06T16:01:10;100652.36;;;15.29;64.60
59873;BME280;50750;51.636;4.948;2022-11-06T16:03:47;100647.45;;;15.28;64.69
59873;BME280;50750;51.636;4.948;2022-11-06T16:06:14;100642.75;;;15.26;64.73
59873;BME280;50750;51.636;4.948;2022-11-06T16:08:41;100640.97;;;15.27;64.79
59873;BME280;50750;51.636;4.948;2022-11-06T16:11:14;100633.54;;;15.27;64.72
59873;BME280;50750;51.636;4.948;2022-11-06T16:13:43;100635.95;;;15.28;64.65